sensor_id;sensor_type;location;lat;lon;timestamp;temperature;humidity
6480;DHT22;71753;48.772;9.148;2023-09-18T00:01:28;21.94;61.92
6480;DHT22;71753;48.772;9.148;2023-09-18T00:03:55;22.03;61.51
6480;DHT22;71753;48.772;9.148;2023-09-18T00:06:23;22.19;60.76
6480;DHT22;71753;48.772;9.148;2023-09-18T00:08:50;22.35;60.18
6480;DHT22;71753;48.772;9.148;2023-09-18T00:11:20;22.42;59.92
6480;DHT22;71753;48.772;9.148;2023-09-18T00:13:46;22.41;60.00
6480;DHT22;71753;48.772;9.148;2023-09-18T00:16:13;22.48;59.82
6480;DHT22;71753;48.772;9.148;2023-09-18T00:18:40;22.47;59.86
6480;DHT22;71753;48.772;9.148;2023-09-18T00:21:07;22.40;60.27
6480;DHT22;71753;48.772;9.148;2023-09-18T00:23:35;22.29;60.61
6480;DHT22;71753;48.772;9.148;2023-09-18T00:26:02;22.31;60.65
6480;DHT22;71753;48.772;9.148;2023-09-18T00:28:30;22.24;60.96
6480;DHT22;71753;48.772;9.148;2023-09-18T00:30:57;22.11;61.44
6480;DHT22;71753;48.772;9.148;2023-09-18T00:33:23;22.16;61.34
6480;DHT22;71753;48.772;9.148;2023-09-18T00:35:51;22.06;61.70
6480;DHT22;71753;48.772;9.148;2023-09-18T00:38:18;22.07;61.78
6480;DHT22;71753;48.772;9.148;2023-09-18T00:40:45;21.95;62.44
6480;DHT22;71753;48.772;9.148;2023-09-18T00:43:11;21.87;63.06
6480;DHT22;71753;48.772;9.148;2023-09-18T00:45:42;21.83;62.77
6480;DHT22;71753;48.772;9.148;2023-09-18T00:48:09;21.85;62.75
6480;DHT22;71753;48.772;9.148;2023-09-18T00:50:36;21.91;62.20
6480;DHT22;71753;48.772;9.148;2023-09-18T00:53:04;21.93;61.85
6480;DHT22;71753;48.772;9.148;2023-09-18T00:55:31;22.10;61.16
6480;DHT22;71753;48.772;9.148;2023-09-18T00:57:58;22.11;61.21
6480;DHT22;71753;48.772;9.148;2023-09-18T01:00:25;22.13;61.22
6480;DHT22;71753;48.772;9.148;2023-09-18T01:02:53;22.14;61.01
6480;DHT22;71753;48.772;9.148;2023-09-18T01:05:20;22.19;60.76
6480;DHT22;71753;48.772;9.148;2023-09-18T01:07:47;22.12;61.11
6480;DHT22;71753;48.772;9.148;2023-09-18T01:10:14;22.08;61.40
6480;DHT22;71753;48.772;9.148;2023-09-18T01:12:45;22.06;61.63
6480;DHT22;71753;48.772;9.148;2023-09-18T01:15:17;22.11;61.56
6480;DHT22;71753;48.772;9.148;2023-09-18T01:17:46;22.16;61.12
6480;DHT22;71753;48.772;9.148;2023-09-18T01:20:14;22.24;60.87
6480;DHT22;71753;48.772;9.148;2023-09-18T01:22:42;22.25;60.75
6480;DHT22;71753;48.772;9.148;2023-09-18T01:25:09;22.42;59.97
6480;DHT22;71753;48.772;9.148;2023-09-18T01:27:36;22.41;60.13
6480;DHT22;71753;48.772;9.148;2023-09-18T01:30:03;22.26;60.88
6480;DHT22;71753;48.772;9.148;2023-09-18T01:32:31;22.26;60.82
6480;DHT22;71753;48.772;9.148;2023-09-18T01:35:00;22.25;60.75
6480;DHT22;71753;48.772;9.148;2023-09-18T01:37:29;22.25;60.82
6480;DHT22;71753;48.772;9.148;2023-09-18T01:39:58;22.14;61.49
6480;DHT22;71753;48.772;9.148;2023-09-18T01:42:25;22.05;61.77
6480;DHT22;71753;48.772;9.148;2023-09-18T01:44:53;22.06;61.81
6480;DHT22;71753;48.772;9.148;2023-09-18T01:47:21;22.03;61.96
6480;DHT22;71753;48.772;9.148;2023-09-18T01:49:49;22.09;61.66
6480;DHT22;71753;48.772;9.148;2023-09-18T01:52:16;22.18;60.94
6480;DHT22;71753;48.772;9.148;2023-09-18T01:54:42;22.53;58.15
6480;DHT22;71753;48.772;9.148;2023-09-18T01:57:10;22.72;56.98
6480;DHT22;71753;48.772;9.148;2023-09-18T01:59:37;22.75;56.89
6480;DHT22;71753;48.772;9.148;2023-09-18T02:02:05;22.78;57.35
6480;DHT22;71753;48.772;9.148;2023-09-18T02:04:35;22.36;61.88
6480;DHT22;71753;48.772;9.148;2023-09-18T02:07:02;22.10;64.51
6480;DHT22;71753;48.772;9.148;2023-09-18T02:09:29;21.82;63.85
6480;DHT22;71753;48.772;9.148;2023-09-18T02:11:55;21.53;66.75
6480;DHT22;71753;48.772;9.148;2023-09-18T02:14:23;21.37;68.22
6480;DHT22;71753;48.772;9.148;2023-09-18T02:16:50;21.24;69.66
6480;DHT22;71753;48.772;9.148;2023-09-18T02:19:17;20.85;72.93
6480;DHT22;71753;48.772;9.148;2023-09-18T02:21:45;20.90;69.61
6480;DHT22;71753;48.772;9.148;2023-09-18T02:24:12;21.08;68.54
6480;DHT22;71753;48.772;9.148;2023-09-18T02:26:38;21.37;65.86
6480;DHT22;71753;48.772;9.148;2023-09-18T02:29:07;21.52;63.95
6480;DHT22;71753;48.772;9.148;2023-09-18T02:31:37;21.63;61.91
6480;DHT22;71753;48.772;9.148;2023-09-18T02:34:04;21.73;62.50
6480;DHT22;71753;48.772;9.148;2023-09-18T02:36:31;21.58;63.53
6480;DHT22;71753;48.772;9.148;2023-09-18T02:38:57;21.35;65.08
6480;DHT22;71753;48.772;9.148;2023-09-18T02:41:24;21.29;65.30
6480;DHT22;71753;48.772;9.148;2023-09-18T02:43:50;21.48;61.42
6480;DHT22;71753;48.772;9.148;2023-09-18T02:46:17;21.57;62.61
6480;DHT22;71753;48.772;9.148;2023-09-18T02:48:45;21.69;60.93
6480;DHT22;71753;48.772;9.148;2023-09-18T02:51:12;21.66;60.95
6480;DHT22;71753;48.772;9.148;2023-09-18T02:53:38;21.52;61.68
6480;DHT22;71753;48.772;9.148;2023-09-18T02:56:05;21.30;62.66
6480;DHT22;71753;48.772;9.148;2023-09-18T02:58:32;21.19;63.34
6480;DHT22;71753;48.772;9.148;2023-09-18T03:00:58;21.16;63.92
6480;DHT22;71753;48.772;9.148;2023-09-18T03:03:25;21.25;62.24
6480;DHT22;71753;48.772;9.148;2023-09-18T03:06:00;21.22;63.04
6480;DHT22;71753;48.772;9.148;2023-09-18T03:08:28;21.16;63.28
6480;DHT22;71753;48.772;9.148;2023-09-18T03:10:55;21.05;64.24
6480;DHT22;71753;48.772;9.148;2023-09-18T03:13:21;21.15;63.23
6480;DHT22;71753;48.772;9.148;2023-09-18T03:15:48;21.18;62.27
6480;DHT22;71753;48.772;9.148;2023-09-18T03:18:15;21.14;63.90
6480;DHT22;71753;48.772;9.148;2023-09-18T03:20:42;20.86;66.43
6480;DHT22;71753;48.772;9.148;2023-09-18T03:23:10;20.59;68.01
6480;DHT22;71753;48.772;9.148;2023-09-18T03:25:37;20.36;69.68
6480;DHT22;71753;48.772;9.148;2023-09-18T03:28:04;20.15;71.10
6480;DHT22;71753;48.772;9.148;2023-09-18T03:30:31;20.04;71.60
6480;DHT22;71753;48.772;9.148;2023-09-18T03:32:57;20.02;71.82
6480;DHT22;71753;48.772;9.148;2023-09-18T03:35:24;20.01;71.30
6480;DHT22;71753;48.772;9.148;2023-09-18T03:37:52;20.05;70.86
6480;DHT22;71753;48.772;9.148;2023-09-18T03:40:21;20.06;71.24
6480;DHT22;71753;48.772;9.148;2023-09-18T03:42:48;20.04;72.77
6480;DHT22;71753;48.772;9.148;2023-09-18T03:45:15;20.05;70.85
6480;DHT22;71753;48.772;9.148;2023-09-18T03:47:44;20.20;69.71
6480;DHT22;71753;48.772;9.148;2023-09-18T03:50:12;20.34;68.46
6480;DHT22;71753;48.772;9.148;2023-09-18T03:52:39;20.76;65.96
6480;DHT22;71753;48.772;9.148;2023-09-18T03:55:06;20.86;65.72
6480;DHT22;71753;48.772;9.148;2023-09-18T03:57:35;20.81;66.14
6480;DHT22;71753;48.772;9.148;2023-09-18T04:00:02;20.72;66.61
6480;DHT22;71753;48.772;9.148;2023-09-18T04:02:30;20.64;67.17
6480;DHT22;71753;48.772;9.148;2023-09-18T04:04:56;20.53;68.01
6480;DHT22;71753;48.772;9.148;2023-09-18T04:07:23;20.45;68.28
6480;DHT22;71753;48.772;9.148;2023-09-18T04:09:49;20.44;68.04
6480;DHT22;71753;48.772;9.148;2023-09-18T04:12:16;20.50;67.53
6480;DHT22;71753;48.772;9.148;2023-09-18T04:14:45;20.56;67.83
6480;DHT22;71753;48.772;9.148;2023-09-18T04:17:11;20.55;68.62
6480;DHT22;71753;48.772;9.148;2023-09-18T04:19:38;20.58;68.10
6480;DHT22;71753;48.772;9.148;2023-09-18T04:22:04;20.56;68.56
6480;DHT22;71753;48.772;9.148;2023-09-18T04:24:31;20.47;70.06
6480;DHT22;71753;48.772;9.148;2023-09-18T04:26:58;20.42;69.91
6480;DHT22;71753;48.772;9.148;2023-09-18T04:29:24;20.34;71.05
6480;DHT22;71753;48.772;9.148;2023-09-18T04:31:52;20.31;70.82
6480;DHT22;71753;48.772;9.148;2023-09-18T04:34:20;20.25;71.45
6480;DHT22;71753;48.772;9.148;2023-09-18T04:36:47;20.25;70.85
6480;DHT22;71753;48.772;9.148;2023-09-18T04:39:14;20.26;71.32
6480;DHT22;71753;48.772;9.148;2023-09-18T04:41:40;20.24;71.54
6480;DHT22;71753;48.772;9.148;2023-09-18T04:44:07;20.15;73.00
6480;DHT22;71753;48.772;9.148;2023-09-18T04:46:34;20.12;71.67
6480;DHT22;71753;48.772;9.148;2023-09-18T04:49:03;20.15;71.86
6480;DHT22;71753;48.772;9.148;2023-09-18T04:51:31;20.20;71.19
6480;DHT22;71753;48.772;9.148;2023-09-18T04:53:58;20.13;73.15
6480;DHT22;71753;48.772;9.148;2023-09-18T04:56:25;19.92;73.56
6480;DHT22;71753;48.772;9.148;2023-09-18T04:58:52;19.68;75.09
6480;DHT22;71753;48.772;9.148;2023-09-18T05:01:19;19.72;74.09
6480;DHT22;71753;48.772;9.148;2023-09-18T05:03:45;19.81;73.58
6480;DHT22;71753;48.772;9.148;2023-09-18T05:06:15;19.82;74.29
6480;DHT22;71753;48.772;9.148;2023-09-18T05:08:43;19.91;73.13
6480;DHT22;71753;48.772;9.148;2023-09-18T05:11:09;19.98;72.54
6480;DHT22;71753;48.772;9.148;2023-09-18T05:13:36;19.98;72.38
6480;DHT22;71753;48.772;9.148;2023-09-18T05:16:03;19.99;72.38
6480;DHT22;71753;48.772;9.148;2023-09-18T05:18:30;19.99;72.31
6480;DHT22;71753;48.772;9.148;2023-09-18T05:20:56;20.02;72.27
6480;DHT22;71753;48.772;9.148;2023-09-18T05:23:25;20.02;72.01
6480;DHT22;71753;48.772;9.148;2023-09-18T05:25:51;20.06;71.53
6480;DHT22;71753;48.772;9.148;2023-09-18T05:28:18;20.06;71.57
6480;DHT22;71753;48.772;9.148;2023-09-18T05:30:45;19.97;72.07
6480;DHT22;71753;48.772;9.148;2023-09-18T05:33:11;19.90;72.45
6480;DHT22;71753;48.772;9.148;2023-09-18T05:35:40;19.92;72.53
6480;DHT22;71753;48.772;9.148;2023-09-18T05:38:07;19.88;72.97
6480;DHT22;71753;48.772;9.148;2023-09-18T05:40:36;19.90;73.29
6480;DHT22;71753;48.772;9.148;2023-09-18T05:43:03;19.87;73.25
6480;DHT22;71753;48.772;9.148;2023-09-18T05:45:31;19.87;73.08
6480;DHT22;71753;48.772;9.148;2023-09-18T05:47:59;19.94;72.26
6480;DHT22;71753;48.772;9.148;2023-09-18T05:50:29;19.95;72.15
6480;DHT22;71753;48.772;9.148;2023-09-18T05:52:57;19.92;72.50
6480;DHT22;71753;48.772;9.148;2023-09-18T05:55:26;19.84;72.90
6480;DHT22;71753;48.772;9.148;2023-09-18T05:57:54;19.82;73.09
6480;DHT22;71753;48.772;9.148;2023-09-18T06:00:21;19.72;73.67
6480;DHT22;71753;48.772;9.148;2023-09-18T06:02:48;19.73;73.38
6480;DHT22;71753;48.772;9.148;2023-09-18T06:05:16;19.61;73.88
6480;DHT22;71753;48.772;9.148;2023-09-18T06:07:46;19.68;73.80
6480;DHT22;71753;48.772;9.148;2023-09-18T06:10:13;19.67;74.48
6480;DHT22;71753;48.772;9.148;2023-09-18T06:12:40;19.66;74.13
6480;DHT22;71753;48.772;9.148;2023-09-18T06:15:09;19.54;76.04
6480;DHT22;71753;48.772;9.148;2023-09-18T06:17:37;19.45;76.29
6480;DHT22;71753;48.772;9.148;2023-09-18T06:20:05;19.37;76.57
6480;DHT22;71753;48.772;9.148;2023-09-18T06:22:35;19.33;77.46
6480;DHT22;71753;48.772;9.148;2023-09-18T06:25:03;19.35;76.76
6480;DHT22;71753;48.772;9.148;2023-09-18T06:27:30;19.32;77.23
6480;DHT22;71753;48.772;9.148;2023-09-18T06:29:57;19.29;76.68
6480;DHT22;71753;48.772;9.148;2023-09-18T06:32:25;19.25;77.45
6480;DHT22;71753;48.772;9.148;2023-09-18T06:34:52;19.21;78.88
6480;DHT22;71753;48.772;9.148;2023-09-18T06:37:19;19.17;80.30
6480;DHT22;71753;48.772;9.148;2023-09-18T06:39:45;19.20;80.59
6480;DHT22;71753;48.772;9.148;2023-09-18T06:42:12;19.18;81.22
6480;DHT22;71753;48.772;9.148;2023-09-18T06:44:39;19.17;81.10
6480;DHT22;71753;48.772;9.148;2023-09-18T06:47:06;19.05;81.48
6480;DHT22;71753;48.772;9.148;2023-09-18T06:49:34;18.95;82.28
6480;DHT22;71753;48.772;9.148;2023-09-18T06:52:01;18.99;81.92
6480;DHT22;71753;48.772;9.148;2023-09-18T06:54:28;19.06;81.12
6480;DHT22;71753;48.772;9.148;2023-09-18T06:56:54;19.11;81.84
6480;DHT22;71753;48.772;9.148;2023-09-18T06:59:22;19.09;82.22
6480;DHT22;71753;48.772;9.148;2023-09-18T07:01:49;19.09;82.15
6480;DHT22;71753;48.772;9.148;2023-09-18T07:04:15;19.28;79.34
6480;DHT22;71753;48.772;9.148;2023-09-18T07:06:43;19.42;79.29
6480;DHT22;71753;48.772;9.148;2023-09-18T07:09:11;19.70;75.47
6480;DHT22;71753;48.772;9.148;2023-09-18T07:11:39;19.76;75.50
6480;DHT22;71753;48.772;9.148;2023-09-18T07:14:06;19.90;74.23
6480;DHT22;71753;48.772;9.148;2023-09-18T07:16:33;20.13;72.49
6480;DHT22;71753;48.772;9.148;2023-09-18T07:19:00;20.16;73.56
6480;DHT22;71753;48.772;9.148;2023-09-18T07:21:30;20.28;71.40
6480;DHT22;71753;48.772;9.148;2023-09-18T07:23:58;20.34;70.35
6480;DHT22;71753;48.772;9.148;2023-09-18T07:26:24;20.30;71.42
6480;DHT22;71753;48.772;9.148;2023-09-18T07:28:51;20.30;70.08
6480;DHT22;71753;48.772;9.148;2023-09-18T07:31:18;20.28;70.41
6480;DHT22;71753;48.772;9.148;2023-09-18T07:33:44;20.27;71.24
6480;DHT22;71753;48.772;9.148;2023-09-18T07:36:12;20.35;69.78
6480;DHT22;71753;48.772;9.148;2023-09-18T07:38:40;20.36;69.41
6480;DHT22;71753;48.772;9.148;2023-09-18T07:41:09;20.39;69.43
6480;DHT22;71753;48.772;9.148;2023-09-18T07:43:37;20.32;71.54
6480;DHT22;71753;48.772;9.148;2023-09-18T07:46:04;20.27;70.68
6480;DHT22;71753;48.772;9.148;2023-09-18T07:48:31;20.29;70.89
6480;DHT22;71753;48.772;9.148;2023-09-18T07:50:57;20.42;69.90
6480;DHT22;71753;48.772;9.148;2023-09-18T07:53:24;20.37;70.04
6480;DHT22;71753;48.772;9.148;2023-09-18T07:55:56;20.37;70.35
6480;DHT22;71753;48.772;9.148;2023-09-18T07:58:25;20.41;69.61
6480;DHT22;71753;48.772;9.148;2023-09-18T08:00:53;20.50;69.74
6480;DHT22;71753;48.772;9.148;2023-09-18T08:03:20;20.43;69.15
6480;DHT22;71753;48.772;9.148;2023-09-18T08:05:49;20.44;68.48
6480;DHT22;71753;48.772;9.148;2023-09-18T08:08:16;20.47;68.62
6480;DHT22;71753;48.772;9.148;2023-09-18T08:10:43;20.46;69.52
6480;DHT22;71753;48.772;9.148;2023-09-18T08:13:09;20.40;69.82
6480;DHT22;71753;48.772;9.148;2023-09-18T08:15:37;20.33;69.33
6480;DHT22;71753;48.772;9.148;2023-09-18T08:18:04;20.34;69.90
6480;DHT22;71753;48.772;9.148;2023-09-18T08:20:31;20.22;70.14
6480;DHT22;71753;48.772;9.148;2023-09-18T08:22:58;20.28;70.05
6480;DHT22;71753;48.772;9.148;2023-09-18T08:25:26;20.22;69.86
6480;DHT22;71753;48.772;9.148;2023-09-18T08:27:53;20.18;69.90
6480;DHT22;71753;48.772;9.148;2023-09-18T08:30:19;20.14;70.23
6480;DHT22;71753;48.772;9.148;2023-09-18T08:32:48;20.13;69.87
6480;DHT22;71753;48.772;9.148;2023-09-18T08:35:15;20.13;70.43
6480;DHT22;71753;48.772;9.148;2023-09-18T08:37:42;20.09;71.36
6480;DHT22;71753;48.772;9.148;2023-09-18T08:40:10;20.06;71.85
6480;DHT22;71753;48.772;9.148;2023-09-18T08:42:39;19.98;72.83
6480;DHT22;71753;48.772;9.148;2023-09-18T08:45:09;19.88;73.51
6480;DHT22;71753;48.772;9.148;2023-09-18T08:47:37;19.75;73.33
6480;DHT22;71753;48.772;9.148;2023-09-18T08:50:07;19.71;74.11
6480;DHT22;71753;48.772;9.148;2023-09-18T08:52:35;19.52;74.38
6480;DHT22;71753;48.772;9.148;2023-09-18T08:55:02;19.33;76.40
6480;DHT22;71753;48.772;9.148;2023-09-18T08:57:29;19.26;76.24
6480;DHT22;71753;48.772;9.148;2023-09-18T08:59:57;19.16;76.73
6480;DHT22;71753;48.772;9.148;2023-09-18T09:02:29;18.99;79.49
6480;DHT22;71753;48.772;9.148;2023-09-18T09:04:56;18.94;78.25
6480;DHT22;71753;48.772;9.148;2023-09-18T09:07:25;18.95;78.95
6480;DHT22;71753;48.772;9.148;2023-09-18T09:09:54;18.85;78.53
6480;DHT22;71753;48.772;9.148;2023-09-18T09:12:48;18.96;78.55
6480;DHT22;71753;48.772;9.148;2023-09-18T09:15:15;18.98;80.04
6480;DHT22;71753;48.772;9.148;2023-09-18T09:17:43;18.87;79.78
6480;DHT22;71753;48.772;9.148;2023-09-18T09:20:11;18.82;81.97
6480;DHT22;71753;48.772;9.148;2023-09-18T09:22:39;18.63;83.07
6480;DHT22;71753;48.772;9.148;2023-09-18T09:25:22;18.48;84.64
6480;DHT22;71753;48.772;9.148;2023-09-18T09:27:51;18.36;84.43
6480;DHT22;71753;48.772;9.148;2023-09-18T09:30:19;18.29;85.44
6480;DHT22;71753;48.772;9.148;2023-09-18T09:32:50;18.23;85.45
6480;DHT22;71753;48.772;9.148;2023-09-18T09:35:22;18.26;85.93
6480;DHT22;71753;48.772;9.148;2023-09-18T09:37:51;18.36;85.61
6480;DHT22;71753;48.772;9.148;2023-09-18T09:40:19;18.50;86.09
6480;DHT22;71753;48.772;9.148;2023-09-18T09:42:46;18.56;85.93
6480;DHT22;71753;48.772;9.148;2023-09-18T09:45:15;18.62;85.35
6480;DHT22;71753;48.772;9.148;2023-09-18T09:47:43;18.58;85.10
6480;DHT22;71753;48.772;9.148;2023-09-18T09:50:11;18.82;83.71
6480;DHT22;71753;48.772;9.148;2023-09-18T09:52:42;19.14;82.01
6480;DHT22;71753;48.772;9.148;2023-09-18T09:55:21;19.27;82.22
6480;DHT22;71753;48.772;9.148;2023-09-18T09:57:51;19.39;82.75
6480;DHT22;71753;48.772;9.148;2023-09-18T10:00:17;19.58;82.66
6480;DHT22;71753;48.772;9.148;2023-09-18T10:03:00;19.91;81.38
6480;DHT22;71753;48.772;9.148;2023-09-18T10:05:30;19.90;80.14
6480;DHT22;71753;48.772;9.148;2023-09-18T10:08:02;20.17;79.54
6480;DHT22;71753;48.772;9.148;2023-09-18T10:10:34;19.91;78.31
6480;DHT22;71753;48.772;9.148;2023-09-18T10:13:07;19.45;82.02
6480;DHT22;71753;48.772;9.148;2023-09-18T10:15:37;19.43;82.97
6480;DHT22;71753;48.772;9.148;2023-09-18T10:18:07;19.50;82.24
6480;DHT22;71753;48.772;9.148;2023-09-18T10:20:39;19.11;81.33
6480;DHT22;71753;48.772;9.148;2023-09-18T10:23:14;19.06;83.16
6480;DHT22;71753;48.772;9.148;2023-09-18T10:25:48;19.21;82.85
6480;DHT22;71753;48.772;9.148;2023-09-18T10:28:16;18.91;83.11
6480;DHT22;71753;48.772;9.148;2023-09-18T10:30:44;19.02;83.55
6480;DHT22;71753;48.772;9.148;2023-09-18T10:33:10;19.00;83.58
6480;DHT22;71753;48.772;9.148;2023-09-18T10:35:38;18.91;83.80
6480;DHT22;71753;48.772;9.148;2023-09-18T10:38:06;18.94;84.45
6480;DHT22;71753;48.772;9.148;2023-09-18T10:40:34;18.85;83.33
6480;DHT22;71753;48.772;9.148;2023-09-18T10:43:04;18.83;83.82
6480;DHT22;71753;48.772;9.148;2023-09-18T10:45:42;18.81;84.32
6480;DHT22;71753;48.772;9.148;2023-09-18T10:48:19;18.77;83.88
6480;DHT22;71753;48.772;9.148;2023-09-18T10:57:00;19.13;83.09
6480;DHT22;71753;48.772;9.148;2023-09-18T10:59:30;18.98;83.11
6480;DHT22;71753;48.772;9.148;2023-09-18T11:02:02;19.07;83.09
6480;DHT22;71753;48.772;9.148;2023-09-18T11:04:31;19.08;82.36
6480;DHT22;71753;48.772;9.148;2023-09-18T11:07:02;18.70;84.34
6480;DHT22;71753;48.772;9.148;2023-09-18T11:09:41;18.62;84.81
6480;DHT22;71753;48.772;9.148;2023-09-18T11:12:09;18.65;85.12
6480;DHT22;71753;48.772;9.148;2023-09-18T11:14:48;18.56;84.88
6480;DHT22;71753;48.772;9.148;2023-09-18T11:17:32;18.77;84.61
6480;DHT22;71753;48.772;9.148;2023-09-18T11:20:04;18.67;85.16
6480;DHT22;71753;48.772;9.148;2023-09-18T11:22:34;18.68;84.90
6480;DHT22;71753;48.772;9.148;2023-09-18T11:25:30;18.79;84.32
6480;DHT22;71753;48.772;9.148;2023-09-18T11:28:00;18.82;84.00
6480;DHT22;71753;48.772;9.148;2023-09-18T11:30:29;19.06;82.39
6480;DHT22;71753;48.772;9.148;2023-09-18T11:32:56;19.06;81.78
6480;DHT22;71753;48.772;9.148;2023-09-18T11:35:22;19.03;82.80
6480;DHT22;71753;48.772;9.148;2023-09-18T11:38:03;18.85;83.11
6480;DHT22;71753;48.772;9.148;2023-09-18T11:40:33;18.91;82.27
6480;DHT22;71753;48.772;9.148;2023-09-18T11:43:23;18.87;80.29
6480;DHT22;71753;48.772;9.148;2023-09-18T11:45:53;19.06;81.27
6480;DHT22;71753;48.772;9.148;2023-09-18T11:48:21;18.98;80.92
6480;DHT22;71753;48.772;9.148;2023-09-18T11:50:49;19.18;81.27
6480;DHT22;71753;48.772;9.148;2023-09-18T11:53:16;19.40;78.82
6480;DHT22;71753;48.772;9.148;2023-09-18T11:55:44;19.40;79.80
6480;DHT22;71753;48.772;9.148;2023-09-18T11:58:11;19.41;79.99
6480;DHT22;71753;48.772;9.148;2023-09-18T12:00:38;19.51;79.51
6480;DHT22;71753;48.772;9.148;2023-09-18T12:03:16;19.43;79.49
6480;DHT22;71753;48.772;9.148;2023-09-18T12:05:55;19.28;79.69
6480;DHT22;71753;48.772;9.148;2023-09-18T12:08:23;19.29;80.94
6480;DHT22;71753;48.772;9.148;2023-09-18T12:10:52;19.31;80.62
6480;DHT22;71753;48.772;9.148;2023-09-18T12:13:18;19.38;79.72
6480;DHT22;71753;48.772;9.148;2023-09-18T12:15:46;19.59;79.26
6480;DHT22;71753;48.772;9.148;2023-09-18T12:18:15;19.53;79.29
6480;DHT22;71753;48.772;9.148;2023-09-18T12:20:47;19.70;78.39
6480;DHT22;71753;48.772;9.148;2023-09-18T12:23:14;19.41;79.69
6480;DHT22;71753;48.772;9.148;2023-09-18T12:25:41;19.33;80.76
6480;DHT22;71753;48.772;9.148;2023-09-18T12:28:10;19.23;80.00
6480;DHT22;71753;48.772;9.148;2023-09-18T12:30:37;19.35;80.91
6480;DHT22;71753;48.772;9.148;2023-09-18T12:33:05;19.55;79.75
6480;DHT22;71753;48.772;9.148;2023-09-18T12:35:33;19.66;78.87
6480;DHT22;71753;48.772;9.148;2023-09-18T12:38:01;19.94;77.72
6480;DHT22;71753;48.772;9.148;2023-09-18T12:40:31;20.12;77.59
6480;DHT22;71753;48.772;9.148;2023-09-18T12:42:59;20.14;75.04
6480;DHT22;71753;48.772;9.148;2023-09-18T12:45:27;20.40;76.48
6480;DHT22;71753;48.772;9.148;2023-09-18T12:47:57;20.88;73.21
6480;DHT22;71753;48.772;9.148;2023-09-18T12:50:24;21.30;72.06
6480;DHT22;71753;48.772;9.148;2023-09-18T12:52:52;21.15;73.24
6480;DHT22;71753;48.772;9.148;2023-09-18T12:55:23;20.98;73.90
6480;DHT22;71753;48.772;9.148;2023-09-18T12:57:51;21.07;73.80
6480;DHT22;71753;48.772;9.148;2023-09-18T13:00:19;21.38;73.19
6480;DHT22;71753;48.772;9.148;2023-09-18T13:02:48;20.73;73.26
6480;DHT22;71753;48.772;9.148;2023-09-18T13:05:19;20.79;72.13
6480;DHT22;71753;48.772;9.148;2023-09-18T13:07:46;21.07;73.05
6480;DHT22;71753;48.772;9.148;2023-09-18T13:10:15;20.81;71.53
6480;DHT22;71753;48.772;9.148;2023-09-18T13:12:42;21.03;70.83
6480;DHT22;71753;48.772;9.148;2023-09-18T13:15:10;21.10;71.10
6480;DHT22;71753;48.772;9.148;2023-09-18T13:17:42;21.46;69.78
6480;DHT22;71753;48.772;9.148;2023-09-18T13:20:12;21.52;68.34
6480;DHT22;71753;48.772;9.148;2023-09-18T13:22:40;21.19;68.67
6480;DHT22;71753;48.772;9.148;2023-09-18T13:25:08;21.09;69.27
6480;DHT22;71753;48.772;9.148;2023-09-18T13:27:37;21.29;68.53
6480;DHT22;71753;48.772;9.148;2023-09-18T13:30:06;21.52;69.93
6480;DHT22;71753;48.772;9.148;2023-09-18T13:32:36;21.47;68.18
6480;DHT22;71753;48.772;9.148;2023-09-18T13:35:04;21.65;67.07
6480;DHT22;71753;48.772;9.148;2023-09-18T13:37:32;21.77;66.34
6480;DHT22;71753;48.772;9.148;2023-09-18T13:39:59;22.02;64.55
6480;DHT22;71753;48.772;9.148;2023-09-18T13:42:27;21.79;65.50
6480;DHT22;71753;48.772;9.148;2023-09-18T13:44:57;21.61;66.73
6480;DHT22;71753;48.772;9.148;2023-09-18T13:47:26;21.91;66.55
6480;DHT22;71753;48.772;9.148;2023-09-18T13:49:52;21.60;66.56
6480;DHT22;71753;48.772;9.148;2023-09-18T13:52:22;21.66;66.44
6480;DHT22;71753;48.772;9.148;2023-09-18T13:54:49;22.03;65.85
6480;DHT22;71753;48.772;9.148;2023-09-18T13:57:17;21.76;64.67
6480;DHT22;71753;48.772;9.148;2023-09-18T13:59:45;21.85;65.02
6480;DHT22;71753;48.772;9.148;2023-09-18T14:02:14;22.08;64.59
6480;DHT22;71753;48.772;9.148;2023-09-18T14:04:41;22.05;63.66
6480;DHT22;71753;48.772;9.148;2023-09-18T14:07:08;21.66;64.98
6480;DHT22;71753;48.772;9.148;2023-09-18T14:09:36;21.67;64.98
6480;DHT22;71753;48.772;9.148;2023-09-18T14:12:03;21.75;64.49
6480;DHT22;71753;48.772;9.148;2023-09-18T14:14:32;21.74;63.59
6480;DHT22;71753;48.772;9.148;2023-09-18T14:17:00;21.76;64.64
6480;DHT22;71753;48.772;9.148;2023-09-18T14:19:30;21.48;64.16
6480;DHT22;71753;48.772;9.148;2023-09-18T14:21:57;21.67;63.68
6480;DHT22;71753;48.772;9.148;2023-09-18T14:24:28;22.01;62.54
6480;DHT22;71753;48.772;9.148;2023-09-18T14:26:55;21.76;63.15
6480;DHT22;71753;48.772;9.148;2023-09-18T14:29:22;21.79;63.64
6480;DHT22;71753;48.772;9.148;2023-09-18T14:31:49;21.67;62.98
6480;DHT22;71753;48.772;9.148;2023-09-18T14:34:15;21.63;63.30
6480;DHT22;71753;48.772;9.148;2023-09-18T14:36:44;21.83;62.80
6480;DHT22;71753;48.772;9.148;2023-09-18T14:39:12;22.14;63.20
6480;DHT22;71753;48.772;9.148;2023-09-18T14:41:40;22.58;60.46
6480;DHT22;71753;48.772;9.148;2023-09-18T14:44:08;22.70;60.32
6480;DHT22;71753;48.772;9.148;2023-09-18T14:46:35;22.26;61.11
6480;DHT22;71753;48.772;9.148;2023-09-18T14:49:03;22.78;59.10
6480;DHT22;71753;48.772;9.148;2023-09-18T14:51:30;22.72;58.81
6480;DHT22;71753;48.772;9.148;2023-09-18T14:53:59;22.67;59.09
6480;DHT22;71753;48.772;9.148;2023-09-18T14:56:26;22.92;58.68
6480;DHT22;71753;48.772;9.148;2023-09-18T14:58:54;22.94;58.58
6480;DHT22;71753;48.772;9.148;2023-09-18T15:01:22;23.08;57.80
6480;DHT22;71753;48.772;9.148;2023-09-18T15:03:49;22.55;59.22
6480;DHT22;71753;48.772;9.148;2023-09-18T15:06:15;22.11;60.56
6480;DHT22;71753;48.772;9.148;2023-09-18T15:08:42;21.98;61.67
6480;DHT22;71753;48.772;9.148;2023-09-18T15:11:11;21.69;62.24
6480;DHT22;71753;48.772;9.148;2023-09-18T15:13:38;21.57;62.95
6480;DHT22;71753;48.772;9.148;2023-09-18T15:16:05;21.88;62.49
6480;DHT22;71753;48.772;9.148;2023-09-18T15:18:32;21.91;61.63
6480;DHT22;71753;48.772;9.148;2023-09-18T15:20:58;21.93;62.63
6480;DHT22;71753;48.772;9.148;2023-09-18T15:23:25;22.21;60.89
6480;DHT22;71753;48.772;9.148;2023-09-18T15:25:53;21.91;61.65
6480;DHT22;71753;48.772;9.148;2023-09-18T15:28:22;21.87;62.02
6480;DHT22;71753;48.772;9.148;2023-09-18T15:30:51;22.24;60.63
6480;DHT22;71753;48.772;9.148;2023-09-18T15:33:18;22.27;60.02
6480;DHT22;71753;48.772;9.148;2023-09-18T15:35:47;22.10;60.67
6480;DHT22;71753;48.772;9.148;2023-09-18T15:38:14;22.27;60.25
6480;DHT22;71753;48.772;9.148;2023-09-18T15:40:41;22.53;59.67
6480;DHT22;71753;48.772;9.148;2023-09-18T15:43:08;21.96;61.02
6480;DHT22;71753;48.772;9.148;2023-09-18T15:45:36;21.81;62.24
6480;DHT22;71753;48.772;9.148;2023-09-18T15:48:03;21.69;62.65
6480;DHT22;71753;48.772;9.148;2023-09-18T15:50:30;21.46;62.38
6480;DHT22;71753;48.772;9.148;2023-09-18T15:52:57;21.34;63.42
6480;DHT22;71753;48.772;9.148;2023-09-18T15:55:24;21.25;63.42
6480;DHT22;71753;48.772;9.148;2023-09-18T15:57:51;21.31;62.38